Granite, Colorado
Current Conditions -  °F | °C
As of 12:53 AM on Friday 19 Dec 2014 (Local Time) from KLXV Reporting Station
Overcast Overcast  
Wind Chill:   Ceiling: 4100
Heat Index: 13°   Visibility: 10mi
Dew Point:   Wind: 7mph
Humidity: 81%   Direction: 30°NNE
Pressure: 30.08"   Gusts: NA
Location:  39.05°N, 106.27°W
Report Text: KLXV 190753Z AUTO 03006KT 10SM OVC041 M11/M13 A3008 RMK AO2 SLP172 T11061133
Loading
Personal Weather Stations






























Interactive Weather Map New forecast layout! Learn more

10-Day Weather Forecast

Advertisements
Track Severe Weather on mobile